createdAt,value
2019-03-25T00:00:38.602Z,54.70
2019-03-25T00:01:44.037Z,54.70
2019-03-25T00:02:48.519Z,54.70
2019-03-25T00:03:53.013Z,54.70
2019-03-25T00:04:57.490Z,54.70
2019-03-25T00:06:01.998Z,54.90
2019-03-25T00:07:06.481Z,54.70
2019-03-25T00:08:11.585Z,54.70
2019-03-25T00:09:16.196Z,54.70
2019-03-25T00:10:20.676Z,54.70
2019-03-25T00:11:25.230Z,54.70
2019-03-25T00:12:29.709Z,54.70
2019-03-25T00:13:34.190Z,54.70
2019-03-25T00:14:38.672Z,54.70
2019-03-25T00:15:43.156Z,54.70
2019-03-25T00:16:47.802Z,54.70
2019-03-25T00:17:52.365Z,54.80
2019-03-25T00:18:56.853Z,54.70
2019-03-25T00:20:01.320Z,54.80
2019-03-25T00:21:05.870Z,54.80
2019-03-25T00:22:10.372Z,54.90
2019-03-25T00:23:14.874Z,54.90
2019-03-25T00:24:19.426Z,54.90
2019-03-25T00:25:23.907Z,55.00
2019-03-25T00:26:28.393Z,55.00
2019-03-25T00:27:32.901Z,55.00
2019-03-25T00:28:37.450Z,55.10
2019-03-25T00:29:41.937Z,55.10
2019-03-25T00:30:46.424Z,55.00
2019-03-25T00:31:50.894Z,55.10
2019-03-25T00:32:55.394Z,55.10
2019-03-25T00:33:59.954Z,55.10
2019-03-25T00:35:05.989Z,55.10
2019-03-25T00:36:10.556Z,55.20
2019-03-25T00:37:15.020Z,55.20
2019-03-25T00:38:19.528Z,55.20
2019-03-25T00:39:24.002Z,55.20
2019-03-25T00:40:28.487Z,55.20
2019-03-25T00:41:32.979Z,55.20
2019-03-25T00:42:37.511Z,55.20
2019-03-25T00:43:42.007Z,55.20
2019-03-25T00:44:46.502Z,55.20
2019-03-25T00:45:50.999Z,55.20
2019-03-25T00:46:55.480Z,55.20
2019-03-25T00:47:59.952Z,55.30
2019-03-25T00:49:04.529Z,55.20
2019-03-25T00:50:09.457Z,55.20
2019-03-25T00:51:13.942Z,55.30
2019-03-25T00:52:18.432Z,55.40
2019-03-25T00:53:22.924Z,55.30
2019-03-25T00:54:27.406Z,55.30
2019-03-25T00:55:31.911Z,55.40
2019-03-25T00:56:36.387Z,55.40
2019-03-25T00:57:40.874Z,55.40
2019-03-25T00:58:45.354Z,55.40
2019-03-25T00:59:49.869Z,55.50
2019-03-25T01:00:54.343Z,55.50
2019-03-25T01:01:58.909Z,55.50
2019-03-25T01:03:03.395Z,55.60
2019-03-25T01:04:07.944Z,55.60
2019-03-25T01:05:12.576Z,55.50
2019-03-25T01:06:17.128Z,55.50
2019-03-25T01:07:21.621Z,55.50
2019-03-25T01:08:26.086Z,55.50
2019-03-25T01:09:30.570Z,55.60
2019-03-25T01:10:35.153Z,55.50
2019-03-25T01:11:48.580Z,55.50
2019-03-25T01:12:45.821Z,55.50
2019-03-25T01:13:50.295Z,55.40
2019-03-25T01:14:54.762Z,55.50
2019-03-25T01:15:59.314Z,55.50
2019-03-25T01:17:03.878Z,55.70
2019-03-25T01:18:16.937Z,55.60
2019-03-25T01:19:14.536Z,55.60
2019-03-25T01:20:19.026Z,55.60
2019-03-25T01:21:23.588Z,55.60
2019-03-25T01:22:28.079Z,55.70
2019-03-25T01:23:32.559Z,55.60
2019-03-25T01:24:37.030Z,55.50
2019-03-25T01:25:41.505Z,55.50
2019-03-25T01:52:16.748Z,54.90
2019-03-25T01:53:21.365Z,55.10
2019-03-25T01:54:26.074Z,55.20
2019-03-25T01:55:30.799Z,55.30
2019-03-25T01:56:35.418Z,55.60
2019-03-25T01:57:40.107Z,55.60
2019-03-25T01:58:44.791Z,55.70
2019-03-25T01:59:49.499Z,55.80
2019-03-25T02:00:54.176Z,55.80
2019-03-25T02:01:58.851Z,55.90
2019-03-25T02:03:03.578Z,55.90
2019-03-25T02:04:08.246Z,55.90
2019-03-25T02:05:12.898Z,56.00
2019-03-25T02:06:17.625Z,56.00
2019-03-25T02:07:22.406Z,56.10
2019-03-25T02:08:27.089Z,56.70
2019-03-25T02:09:31.776Z,56.10
2019-03-25T02:10:36.441Z,56.10
2019-03-25T02:11:41.127Z,56.20
2019-03-25T02:12:45.880Z,56.20
2019-03-25T02:13:50.862Z,56.30
2019-03-25T02:14:55.684Z,56.30
2019-03-25T02:16:00.687Z,56.40
2019-03-25T02:17:05.629Z,56.30
2019-03-25T02:18:10.619Z,56.50
2019-03-25T02:19:15.579Z,56.40
2019-03-25T02:20:26.222Z,56.40
2019-03-25T02:21:26.537Z,56.30
2019-03-25T02:22:31.323Z,56.30
2019-03-25T02:23:36.042Z,56.40
2019-03-25T02:24:40.715Z,56.30
2019-03-25T02:25:45.387Z,56.40
2019-03-25T02:26:50.114Z,56.40
2019-03-25T02:27:54.838Z,56.40
2019-03-25T02:28:59.873Z,56.50
2019-03-25T02:30:06.808Z,56.50
2019-03-25T02:31:11.665Z,56.50
2019-03-25T02:32:16.381Z,56.60
2019-03-25T02:33:21.303Z,56.60
2019-03-25T02:34:25.914Z,56.60
2019-03-25T02:35:30.704Z,56.60
2019-03-25T02:36:35.738Z,56.70
2019-03-25T02:37:40.453Z,56.70
2019-03-25T02:38:45.410Z,56.70
2019-03-25T02:39:50.096Z,56.80
2019-03-25T02:40:54.719Z,56.80
2019-03-25T02:41:59.620Z,56.70
2019-03-25T02:43:04.523Z,56.70
2019-03-25T02:44:09.262Z,56.90
2019-03-25T02:45:14.269Z,56.80
2019-03-25T02:46:19.004Z,56.80
2019-03-25T02:47:23.722Z,56.80
2019-03-25T02:48:28.430Z,57.40
2019-03-25T02:49:33.150Z,56.80
2019-03-25T02:50:37.827Z,56.80
2019-03-25T02:51:42.492Z,57.00
2019-03-25T02:52:47.205Z,57.10
2019-03-25T02:53:51.845Z,57.10
2019-03-25T02:54:56.485Z,57.00
2019-03-25T02:56:01.523Z,57.00
2019-03-25T02:57:06.223Z,57.10
2019-03-25T02:58:10.853Z,57.30
2019-03-25T02:59:15.539Z,57.20
2019-03-25T03:00:23.284Z,57.40
2019-03-25T03:01:27.913Z,57.40
2019-03-25T03:03:36.870Z,57.00
2019-03-25T03:04:41.506Z,57.50
2019-03-25T03:05:46.230Z,57.60
2019-03-25T03:06:51.635Z,57.80
2019-03-25T03:07:56.850Z,57.60
2019-03-25T03:09:01.744Z,57.70
2019-03-25T03:10:07.626Z,57.60
2019-03-25T03:11:12.315Z,57.70
2019-03-25T03:12:17.271Z,57.70
2019-03-25T03:13:21.954Z,57.60
2019-03-25T03:14:26.948Z,57.70
2019-03-25T03:15:31.583Z,57.60
2019-03-25T03:16:36.721Z,57.70
2019-03-25T03:17:41.674Z,57.70
2019-03-25T03:18:46.287Z,57.60
2019-03-25T03:19:50.976Z,57.70
2019-03-25T03:20:55.604Z,57.80
2019-03-25T03:22:00.240Z,57.70
2019-03-25T03:23:04.977Z,57.80
2019-03-25T03:24:09.631Z,57.90
2019-03-25T03:25:14.350Z,58.00
2019-03-25T03:26:19.027Z,57.90
2019-03-25T03:27:23.838Z,58.00
2019-03-25T03:28:28.547Z,58.20
2019-03-25T03:29:33.227Z,58.30
2019-03-25T03:30:37.956Z,58.20
2019-03-25T03:31:42.613Z,58.20
2019-03-25T03:32:47.242Z,58.30
2019-03-25T03:33:51.972Z,58.50
2019-03-25T03:34:56.812Z,58.50
2019-03-25T03:36:01.524Z,58.40
2019-03-25T03:37:07.124Z,58.50
2019-03-25T03:38:11.983Z,58.50
2019-03-25T03:39:16.839Z,58.70
2019-03-25T03:40:21.442Z,58.70
2019-03-25T03:41:26.165Z,58.80
2019-03-25T03:42:30.843Z,58.70
2019-03-25T03:43:35.812Z,58.80
2019-03-25T03:44:40.513Z,58.80
2019-03-25T03:45:45.275Z,58.90
2019-03-25T03:46:49.905Z,58.90
2019-03-25T03:47:54.621Z,59.10
2019-03-25T03:48:59.323Z,59.00
2019-03-25T03:50:06.874Z,59.00
2019-03-25T03:51:11.693Z,59.00
2019-03-25T03:52:16.406Z,59.00
2019-03-25T03:53:21.133Z,59.10
2019-03-25T03:54:25.934Z,59.10
2019-03-25T03:55:31.156Z,59.20
2019-03-25T03:56:36.651Z,59.10
2019-03-25T03:57:41.355Z,59.20
2019-03-25T03:58:46.357Z,59.50
2019-03-25T03:59:51.841Z,59.30
2019-03-25T04:00:56.336Z,59.30
2019-03-25T04:02:01.139Z,59.40
2019-03-25T04:03:05.788Z,59.50
2019-03-25T04:04:10.338Z,59.60
2019-03-25T04:05:15.013Z,59.50
2019-03-25T04:06:19.515Z,59.40
2019-03-25T04:07:24.329Z,59.40
2019-03-25T04:08:28.827Z,59.50
2019-03-25T04:09:33.382Z,59.60
2019-03-25T04:10:38.189Z,59.60
2019-03-25T04:11:42.703Z,59.70
2019-03-25T04:12:47.258Z,60.40
2019-03-25T04:13:51.729Z,59.80
2019-03-25T04:14:56.228Z,59.80
2019-03-25T04:16:01.614Z,59.70
2019-03-25T04:17:06.623Z,60.00
2019-03-25T04:18:11.091Z,60.00
2019-03-25T04:19:15.659Z,60.00
2019-03-25T04:20:20.137Z,60.10
2019-03-25T04:21:24.637Z,60.00
2019-03-25T04:22:29.125Z,60.10
2019-03-25T04:23:33.611Z,60.10
2019-03-25T04:24:38.089Z,60.10
2019-03-25T04:25:42.585Z,60.20
2019-03-25T04:26:47.059Z,60.20
2019-03-25T04:27:51.548Z,60.20
2019-03-25T04:28:56.023Z,60.20
2019-03-25T04:30:00.670Z,60.30
2019-03-25T04:31:05.170Z,60.40
2019-03-25T04:32:09.649Z,60.30
2019-03-25T04:33:14.188Z,60.30
2019-03-25T04:34:18.667Z,60.30
2019-03-25T04:35:23.135Z,60.20
2019-03-25T04:36:27.632Z,61.10
2019-03-25T04:37:32.298Z,60.30
2019-03-25T04:38:36.952Z,60.60
2019-03-25T04:39:41.420Z,60.40
2019-03-25T04:40:45.916Z,60.70
2019-03-25T04:41:50.584Z,60.60
2019-03-25T04:42:55.073Z,60.40
2019-03-25T04:43:59.586Z,60.30
2019-03-25T04:45:05.944Z,60.60
2019-03-25T04:46:10.485Z,61.40
2019-03-25T04:47:15.029Z,61.20
2019-03-25T04:48:19.538Z,60.90
2019-03-25T04:49:24.042Z,61.80
2019-03-25T04:50:28.517Z,61.20
2019-03-25T04:51:33.000Z,61.40
2019-03-25T04:52:37.475Z,61.30
2019-03-25T04:53:42.075Z,61.70
2019-03-25T04:54:46.556Z,61.40
2019-03-25T04:55:51.053Z,61.80
2019-03-25T04:56:55.603Z,62.00
2019-03-25T04:58:00.109Z,62.00
2019-03-25T04:59:05.548Z,62.10
2019-03-25T05:00:10.627Z,62.10
2019-03-25T05:01:15.120Z,62.40
2019-03-25T05:02:19.665Z,62.20
2019-03-25T05:03:24.219Z,62.30
2019-03-25T05:04:28.695Z,62.10
2019-03-25T05:05:35.697Z,62.10
2019-03-25T05:06:39.567Z,62.30
2019-03-25T05:07:44.049Z,62.50
2019-03-25T05:08:48.550Z,62.60
2019-03-25T05:09:53.028Z,62.60
2019-03-25T05:10:57.523Z,62.50
2019-03-25T05:12:01.999Z,62.60
2019-03-25T05:13:06.569Z,62.60
2019-03-25T05:14:11.039Z,63.00
2019-03-25T05:15:15.533Z,63.10
2019-03-25T05:16:20.020Z,62.80
2019-03-25T05:17:24.520Z,62.70
2019-03-25T05:18:29.136Z,62.90
2019-03-25T05:19:33.614Z,62.90
2019-03-25T05:20:38.113Z,62.90
2019-03-25T05:21:42.606Z,62.90
2019-03-25T05:22:47.084Z,62.90
2019-03-25T05:23:51.553Z,62.80
2019-03-25T05:24:56.955Z,62.90
2019-03-25T05:26:01.450Z,63.00
2019-03-25T05:27:05.935Z,63.00
2019-03-25T05:28:10.416Z,63.00
2019-03-25T05:29:14.916Z,63.40
2019-03-25T05:30:19.447Z,63.20
2019-03-25T05:31:23.950Z,63.30
2019-03-25T05:32:28.456Z,63.30
2019-03-25T05:33:32.923Z,63.70
2019-03-25T05:34:37.418Z,63.60
2019-03-25T05:35:42.241Z,63.40
2019-03-25T05:36:46.738Z,63.30
2019-03-25T05:37:51.323Z,63.60
2019-03-25T05:38:55.880Z,63.40
2019-03-25T05:40:00.412Z,63.30
2019-03-25T05:41:04.961Z,63.20
2019-03-25T05:42:09.473Z,63.30
2019-03-25T05:43:14.115Z,63.40
2019-03-25T05:44:18.746Z,63.30
2019-03-25T05:45:23.231Z,63.40
2019-03-25T05:46:27.711Z,63.40
2019-03-25T05:47:32.192Z,63.40
2019-03-25T05:48:36.688Z,63.40
2019-03-25T05:49:41.182Z,63.30
2019-03-25T05:50:45.664Z,63.30
2019-03-25T05:51:50.142Z,63.60
2019-03-25T05:52:54.638Z,63.40
2019-03-25T05:53:59.158Z,63.60
2019-03-25T05:55:04.968Z,63.60
2019-03-25T05:56:09.442Z,63.60
2019-03-25T05:57:13.926Z,63.70
2019-03-25T05:58:18.398Z,63.70
2019-03-25T05:59:22.987Z,63.90
2019-03-25T06:00:31.775Z,63.80
2019-03-25T06:01:36.256Z,63.70
2019-03-25T06:02:40.753Z,63.40
2019-03-25T06:03:45.249Z,63.30
2019-03-25T06:04:49.726Z,63.30
2019-03-25T06:05:54.198Z,63.30
2019-03-25T06:06:58.678Z,63.50
2019-03-25T06:08:03.169Z,63.40
2019-03-25T06:09:07.724Z,63.20
2019-03-25T06:10:13.269Z,63.60
2019-03-25T06:11:17.766Z,63.40
2019-03-25T06:12:22.249Z,63.40
2019-03-25T06:13:26.722Z,63.20
2019-03-25T06:14:31.196Z,63.10
2019-03-25T06:15:35.692Z,62.90
2019-03-25T06:16:40.247Z,63.00
2019-03-25T06:17:44.732Z,62.80
2019-03-25T06:18:49.199Z,62.80
2019-03-25T06:19:53.681Z,62.60
2019-03-25T06:20:58.189Z,62.60
2019-03-25T06:22:02.664Z,62.60
2019-03-25T06:23:07.152Z,62.70
2019-03-25T06:24:11.632Z,62.50
2019-03-25T06:25:16.127Z,62.40
2019-03-25T06:26:20.629Z,62.40
2019-03-25T06:27:25.107Z,62.20
2019-03-25T06:28:29.580Z,62.20
2019-03-25T06:29:34.081Z,62.10
2019-03-25T06:30:38.563Z,61.90
2019-03-25T06:31:43.053Z,62.10
2019-03-25T06:32:47.557Z,61.90
2019-03-25T06:33:52.045Z,61.80
2019-03-25T06:34:56.513Z,61.70
2019-03-25T06:36:01.124Z,61.70
2019-03-25T06:37:05.612Z,61.50
2019-03-25T06:38:10.129Z,61.30
2019-03-25T06:39:14.598Z,61.20
2019-03-25T06:40:19.151Z,61.20
2019-03-25T06:41:23.627Z,61.00
2019-03-25T06:42:28.115Z,60.80
2019-03-25T06:43:32.621Z,60.50
2019-03-25T06:44:37.107Z,60.40
2019-03-25T06:45:41.597Z,60.20
2019-03-25T06:46:46.084Z,60.20
2019-03-25T06:47:50.568Z,60.00
2019-03-25T06:48:55.079Z,59.90
2019-03-25T06:49:59.594Z,59.70
2019-03-25T06:51:04.191Z,59.50
2019-03-25T06:52:08.737Z,59.30
2019-03-25T06:53:13.226Z,59.30
2019-03-25T06:54:17.708Z,59.10
2019-03-25T06:55:22.182Z,59.00
2019-03-25T06:56:26.689Z,58.80
2019-03-25T06:57:31.163Z,58.80
2019-03-25T06:58:35.634Z,58.60
2019-03-25T06:59:40.161Z,58.60
2019-03-25T07:00:44.652Z,58.60
2019-03-25T07:01:49.132Z,58.60
2019-03-25T07:02:53.606Z,58.50
2019-03-25T07:03:58.079Z,58.50
2019-03-25T07:05:02.581Z,58.50
2019-03-25T07:06:07.059Z,58.60
2019-03-25T07:07:11.522Z,58.60
2019-03-25T07:08:16.005Z,58.60
2019-03-25T07:09:21.155Z,58.50
2019-03-25T07:10:30.947Z,58.50
2019-03-25T07:11:35.664Z,58.50
2019-03-25T07:12:40.270Z,58.50
2019-03-25T07:13:44.764Z,58.50
2019-03-25T07:14:49.320Z,58.50
2019-03-25T07:15:54.137Z,58.50
2019-03-25T07:16:58.623Z,58.50
2019-03-25T07:18:03.232Z,58.40
2019-03-25T07:19:07.707Z,58.30
2019-03-25T07:20:12.647Z,58.30
2019-03-25T07:21:17.161Z,58.30
2019-03-25T07:22:21.648Z,58.20
2019-03-25T07:23:26.150Z,58.20
2019-03-25T07:24:30.631Z,58.20
2019-03-25T07:25:35.106Z,58.20
2019-03-25T07:26:39.608Z,58.10
2019-03-25T07:27:44.168Z,58.00
2019-03-25T07:28:48.916Z,57.90
2019-03-25T07:29:53.396Z,57.80
2019-03-25T07:30:58.081Z,57.70
2019-03-25T07:32:02.605Z,57.50
2019-03-25T07:33:07.409Z,57.40
2019-03-25T07:34:12.083Z,57.40
2019-03-25T07:35:16.632Z,57.30
2019-03-25T07:36:21.135Z,57.10
2019-03-25T07:37:25.721Z,56.70
2019-03-25T07:38:30.276Z,56.50
2019-03-25T07:39:35.107Z,56.40
2019-03-25T07:40:39.771Z,56.00
2019-03-25T07:41:44.286Z,55.70
2019-03-25T07:42:49.104Z,55.60
2019-03-25T07:43:53.764Z,55.50
2019-03-25T07:44:58.245Z,55.40
2019-03-25T07:46:02.741Z,55.10
2019-03-25T07:47:07.232Z,55.10
2019-03-25T07:48:11.720Z,55.10
2019-03-25T07:49:16.185Z,55.10
2019-03-25T07:50:20.701Z,54.90
2019-03-25T07:51:25.190Z,54.90
2019-03-25T07:52:29.758Z,54.80
2019-03-25T07:53:34.283Z,54.60
2019-03-25T07:54:38.832Z,54.50
2019-03-25T07:55:43.296Z,54.60
2019-03-25T07:56:47.806Z,54.50
2019-03-25T07:57:52.288Z,55.10
2019-03-25T07:58:56.825Z,54.20
2019-03-25T08:00:12.916Z,54.30
2019-03-25T08:01:07.469Z,54.30
2019-03-25T08:02:11.986Z,54.30
2019-03-25T08:03:16.440Z,54.30
2019-03-25T08:04:20.932Z,54.40
2019-03-25T08:05:25.398Z,54.30
2019-03-25T08:06:29.892Z,54.20
2019-03-25T08:07:34.390Z,54.00
2019-03-25T08:08:38.929Z,54.20
2019-03-25T08:09:43.530Z,54.70
2019-03-25T08:10:48.063Z,54.10
2019-03-25T08:11:52.534Z,53.80
2019-03-25T08:12:57.303Z,53.90
2019-03-25T08:14:01.843Z,54.00
2019-03-25T08:15:07.725Z,53.80
2019-03-25T08:16:12.211Z,53.70
2019-03-25T08:17:16.688Z,53.60
2019-03-25T08:18:21.194Z,53.60
2019-03-25T08:19:25.664Z,53.50
2019-03-25T08:20:30.227Z,53.40
2019-03-25T08:21:34.716Z,53.30
2019-03-25T08:22:39.270Z,53.30
2019-03-25T08:23:43.952Z,53.40
2019-03-25T08:24:48.535Z,53.20
2019-03-25T08:25:53.023Z,53.20
2019-03-25T08:26:57.501Z,52.80
2019-03-25T08:28:02.119Z,53.10
2019-03-25T08:29:06.610Z,52.70
2019-03-25T08:30:11.514Z,52.60
2019-03-25T08:31:16.087Z,52.70
2019-03-25T08:32:20.612Z,52.50
2019-03-25T08:33:25.360Z,52.20
2019-03-25T08:34:29.931Z,52.10
2019-03-25T08:35:34.407Z,52.00
2019-03-25T08:36:38.953Z,51.80
2019-03-25T08:37:43.424Z,51.90
2019-03-25T08:38:48.492Z,51.60
2019-03-25T08:39:53.000Z,51.70
2019-03-25T08:40:57.475Z,51.60
2019-03-25T08:42:01.944Z,51.80
2019-03-25T08:43:06.424Z,51.90
2019-03-25T08:44:10.895Z,51.90
2019-03-25T08:45:15.728Z,51.90
2019-03-25T08:46:20.200Z,51.60
2019-03-25T08:47:24.668Z,51.50
2019-03-25T08:48:29.160Z,51.20
2019-03-25T08:49:33.934Z,51.30
2019-03-25T08:50:38.427Z,51.00
2019-03-25T08:51:42.919Z,50.80
2019-03-25T08:52:47.372Z,50.60
2019-03-25T08:53:51.853Z,50.60
2019-03-25T08:54:56.324Z,50.50
2019-03-25T08:56:00.803Z,50.50
2019-03-25T08:57:05.503Z,50.30
2019-03-25T08:58:12.185Z,50.60
2019-03-25T08:59:16.470Z,50.60
2019-03-25T09:00:21.522Z,50.50
2019-03-25T09:01:26.009Z,50.70
2019-03-25T09:02:30.660Z,50.60
2019-03-25T09:03:35.134Z,50.50
2019-03-25T09:04:39.643Z,50.10
2019-03-25T09:05:44.120Z,50.00
2019-03-25T09:06:48.918Z,49.90
2019-03-25T09:07:53.375Z,49.70
2019-03-25T09:08:57.853Z,49.60
2019-03-25T09:10:02.712Z,49.50
2019-03-25T09:11:07.312Z,49.30
2019-03-25T09:12:12.031Z,49.20
2019-03-25T09:13:16.503Z,49.10
2019-03-25T09:14:20.986Z,49.00
2019-03-25T09:15:25.619Z,49.10
2019-03-25T09:16:30.092Z,49.00
2019-03-25T09:17:34.584Z,49.00
2019-03-25T09:18:39.042Z,49.10
2019-03-25T09:19:43.542Z,49.20
2019-03-25T09:20:47.990Z,49.10
2019-03-25T09:21:52.550Z,49.00
2019-03-25T09:22:57.184Z,49.10
2019-03-25T09:24:01.880Z,48.90
2019-03-25T09:25:08.152Z,48.90
2019-03-25T09:26:12.641Z,49.00
2019-03-25T09:27:17.180Z,49.00
2019-03-25T09:28:24.483Z,48.90
2019-03-25T09:29:27.937Z,49.00
2019-03-25T09:30:53.745Z,48.90
2019-03-25T09:31:58.350Z,48.80
2019-03-25T09:33:02.981Z,48.70
2019-03-25T09:34:07.800Z,48.80
2019-03-25T09:35:12.369Z,48.70
2019-03-25T09:36:18.469Z,48.60
2019-03-25T09:37:22.936Z,48.60
2019-03-25T09:38:27.429Z,48.50
2019-03-25T09:39:32.038Z,48.50
2019-03-25T09:40:36.543Z,48.70
2019-03-25T09:41:41.010Z,48.10
2019-03-25T09:42:45.483Z,48.70
2019-03-25T09:43:50.650Z,48.10
2019-03-25T09:44:55.135Z,48.00
2019-03-25T09:45:59.794Z,47.80
2019-03-25T09:47:04.534Z,47.90
2019-03-25T09:48:09.676Z,48.00
2019-03-25T09:49:14.261Z,48.50
2019-03-25T09:50:18.863Z,47.60
2019-03-25T09:51:23.386Z,47.70
2019-03-25T09:52:38.131Z,47.50
2019-03-25T09:53:34.116Z,47.40
2019-03-25T09:54:38.602Z,47.30
2019-03-25T09:55:43.212Z,47.20
2019-03-25T09:56:47.756Z,47.00
2019-03-25T09:57:52.241Z,46.90
2019-03-25T09:58:56.708Z,46.90
2019-03-25T10:00:01.184Z,46.80
2019-03-25T10:01:05.871Z,46.80
2019-03-25T10:02:10.368Z,46.50
2019-03-25T10:03:14.843Z,46.60
2019-03-25T10:04:20.177Z,46.70
2019-03-25T10:05:24.834Z,46.60
2019-03-25T10:06:29.374Z,46.80
2019-03-25T10:07:33.869Z,46.80
2019-03-25T10:08:38.598Z,46.70
2019-03-25T10:09:43.193Z,46.90
2019-03-25T10:10:48.387Z,46.80
2019-03-25T10:11:52.893Z,46.60
2019-03-25T10:12:57.365Z,46.50
2019-03-25T10:14:02.005Z,46.70
2019-03-25T10:15:08.619Z,46.90
2019-03-25T10:16:13.148Z,47.20
2019-03-25T10:17:17.697Z,47.30
2019-03-25T10:18:22.245Z,47.00
2019-03-25T10:19:26.722Z,46.60
2019-03-25T10:20:31.187Z,46.40
2019-03-25T10:21:35.660Z,46.50
2019-03-25T10:22:40.261Z,46.60
2019-03-25T10:23:44.764Z,46.80
2019-03-25T10:24:49.322Z,46.80
2019-03-25T10:25:53.906Z,46.80
2019-03-25T10:26:58.461Z,46.00
2019-03-25T10:28:02.955Z,46.70
2019-03-25T10:29:07.564Z,46.30
2019-03-25T10:30:14.139Z,45.70
2019-03-25T10:31:19.354Z,45.60
2019-03-25T10:32:23.834Z,44.70
2019-03-25T10:33:28.304Z,44.20
2019-03-25T10:34:32.770Z,43.90
2019-03-25T10:35:37.278Z,43.90
2019-03-25T10:36:41.839Z,43.60
2019-03-25T10:38:50.577Z,44.00
2019-03-25T10:39:55.077Z,42.50
2019-03-25T10:40:59.568Z,42.00
2019-03-25T10:42:04.048Z,41.40
2019-03-25T10:43:08.589Z,41.00
2019-03-25T10:44:13.137Z,40.50
2019-03-25T10:45:18.872Z,40.30
2019-03-25T10:46:23.367Z,40.10
2019-03-25T10:47:27.856Z,40.50
2019-03-25T10:48:32.386Z,40.10
2019-03-25T10:49:36.897Z,39.80
2019-03-25T10:50:41.450Z,39.60
2019-03-25T10:51:45.959Z,40.20
2019-03-25T10:52:50.432Z,39.60
2019-03-25T10:53:54.912Z,39.80
2019-03-25T10:54:59.506Z,39.50
2019-03-25T10:56:04.065Z,38.80
2019-03-25T10:57:08.551Z,39.00
2019-03-25T10:58:13.119Z,38.60
2019-03-25T10:59:17.665Z,38.40
2019-03-25T11:00:22.330Z,38.80
2019-03-25T11:01:26.860Z,39.10
2019-03-25T11:02:31.384Z,38.40
2019-03-25T11:03:35.856Z,38.40
2019-03-25T11:04:40.326Z,37.80
2019-03-25T11:05:44.933Z,37.80
2019-03-25T11:06:49.475Z,38.30
2019-03-25T11:07:53.971Z,38.60
2019-03-25T11:08:58.443Z,38.60
2019-03-25T11:10:03.398Z,38.40
2019-03-25T11:11:08.064Z,39.00
2019-03-25T11:12:12.574Z,37.80
2019-03-25T11:13:17.112Z,37.10
2019-03-25T11:14:21.584Z,36.70
2019-03-25T11:15:26.147Z,36.70
2019-03-25T11:16:30.637Z,36.10
2019-03-25T11:17:35.152Z,35.80
2019-03-25T11:18:39.676Z,35.80
2019-03-25T11:19:44.183Z,36.00
2019-03-25T11:20:48.677Z,35.70
2019-03-25T11:21:53.157Z,35.20
2019-03-25T11:22:57.624Z,34.90
2019-03-25T11:24:02.699Z,35.30
2019-03-25T11:25:08.015Z,34.80
2019-03-25T11:26:12.527Z,35.00
2019-03-25T11:27:17.016Z,35.40
2019-03-25T11:28:21.579Z,35.40
2019-03-25T11:29:26.045Z,35.20
2019-03-25T11:30:50.857Z,35.50
2019-03-25T11:31:55.344Z,35.90
2019-03-25T11:32:59.841Z,35.80
2019-03-25T11:34:04.516Z,35.70
2019-03-25T11:35:10.335Z,35.30
2019-03-25T11:36:14.902Z,34.90
2019-03-25T11:37:19.454Z,34.40
2019-03-25T11:38:23.961Z,33.50
2019-03-25T11:39:28.457Z,33.50
2019-03-25T11:40:32.926Z,33.40
2019-03-25T11:41:37.469Z,33.00
2019-03-25T11:42:41.935Z,32.80
2019-03-25T11:43:46.436Z,32.50
2019-03-25T11:44:50.907Z,32.00
2019-03-25T11:45:55.524Z,32.80
2019-03-25T11:46:59.995Z,33.10
2019-03-25T11:48:04.708Z,33.00
2019-03-25T11:49:09.233Z,32.70
2019-03-25T11:50:13.897Z,33.20
2019-03-25T11:51:18.376Z,33.30
2019-03-25T11:52:22.838Z,33.20
2019-03-25T11:53:27.312Z,33.10
2019-03-25T11:54:31.794Z,32.90
2019-03-25T11:55:36.279Z,32.50
2019-03-25T11:56:40.768Z,32.50
2019-03-25T11:57:45.230Z,32.40
2019-03-25T11:58:49.788Z,32.20
2019-03-25T11:59:54.250Z,32.50
2019-03-25T12:00:58.745Z,32.50
2019-03-25T12:02:03.212Z,32.50
2019-03-25T12:03:07.833Z,32.50
2019-03-25T12:04:12.297Z,32.60
2019-03-25T12:05:16.918Z,33.00
2019-03-25T12:06:21.424Z,33.20
2019-03-25T12:07:25.938Z,33.30
2019-03-25T12:08:30.416Z,33.50
2019-03-25T12:09:34.938Z,33.60
2019-03-25T12:10:39.724Z,33.60
2019-03-25T12:11:44.201Z,33.70
2019-03-25T12:12:48.684Z,33.50
2019-03-25T12:13:53.574Z,33.10
2019-03-25T12:14:58.048Z,33.40
2019-03-25T12:16:02.809Z,33.40
2019-03-25T12:17:07.293Z,33.40
2019-03-25T12:18:11.778Z,33.40
2019-03-25T12:19:16.257Z,33.40
2019-03-25T12:20:20.803Z,33.60
2019-03-25T12:21:25.271Z,33.80
2019-03-25T12:22:29.760Z,34.00
2019-03-25T12:23:34.233Z,34.30
2019-03-25T12:24:38.707Z,34.50
2019-03-25T12:25:43.240Z,34.70
2019-03-25T12:26:47.722Z,35.10
2019-03-25T12:27:52.218Z,35.40
2019-03-25T12:28:56.684Z,35.50
2019-03-25T12:30:01.156Z,35.80
2019-03-25T12:31:05.643Z,36.00
2019-03-25T12:32:10.159Z,36.20
2019-03-25T12:33:14.615Z,36.30
2019-03-25T12:34:19.095Z,36.40
2019-03-25T12:35:23.610Z,36.50
2019-03-25T12:36:28.355Z,36.60
2019-03-25T12:37:32.856Z,36.60
2019-03-25T12:38:37.393Z,36.40
2019-03-25T12:39:41.860Z,36.40
2019-03-25T12:40:46.333Z,36.10
2019-03-25T12:41:50.814Z,36.10
2019-03-25T12:42:55.303Z,35.90
2019-03-25T12:43:59.933Z,36.60
2019-03-25T12:45:06.463Z,35.70
2019-03-25T12:46:11.083Z,35.70
2019-03-25T12:47:15.630Z,35.80
2019-03-25T12:48:20.199Z,35.80
2019-03-25T12:49:24.688Z,35.70
2019-03-25T12:50:29.213Z,35.60
2019-03-25T12:51:33.806Z,36.30
2019-03-25T12:52:38.725Z,35.60
2019-03-25T12:53:43.287Z,35.80
2019-03-25T12:54:47.860Z,35.80
2019-03-25T12:55:52.457Z,35.90
2019-03-25T12:56:56.907Z,36.00
2019-03-25T12:58:01.604Z,36.00
2019-03-25T12:59:06.075Z,36.10
2019-03-25T13:00:11.374Z,36.10
2019-03-25T13:01:15.856Z,36.30
2019-03-25T13:02:20.315Z,36.50
2019-03-25T13:03:24.778Z,36.70
2019-03-25T13:04:29.261Z,36.70
2019-03-25T13:05:34.077Z,36.90
2019-03-25T13:06:39.201Z,37.10
2019-03-25T13:07:43.676Z,37.20
2019-03-25T13:08:48.228Z,37.30
2019-03-25T13:09:52.859Z,37.70
2019-03-25T13:10:57.531Z,38.10
2019-03-25T13:12:02.036Z,38.60
2019-03-25T13:13:06.871Z,39.30
2019-03-25T13:14:11.368Z,39.90
2019-03-25T13:15:15.832Z,39.90
2019-03-25T13:16:20.314Z,40.20
2019-03-25T13:17:24.770Z,41.50
2019-03-25T13:18:29.253Z,41.90
2019-03-25T13:19:33.790Z,41.80
2019-03-25T13:20:38.292Z,42.30
2019-03-25T13:21:42.752Z,42.60
2019-03-25T13:22:47.238Z,43.30
2019-03-25T13:23:51.737Z,43.50
2019-03-25T13:24:56.203Z,44.00
2019-03-25T13:26:00.691Z,43.70
2019-03-25T13:27:05.160Z,44.00
2019-03-25T13:28:09.631Z,44.10
2019-03-25T13:29:14.125Z,44.20
2019-03-25T13:30:18.850Z,44.50
2019-03-25T13:31:23.325Z,44.70
2019-03-25T13:32:27.810Z,45.00
2019-03-25T13:33:32.302Z,45.10
2019-03-25T13:34:36.841Z,45.30
2019-03-25T13:35:41.313Z,45.40
2019-03-25T13:36:45.939Z,45.40
2019-03-25T13:37:50.416Z,45.30
2019-03-25T13:38:54.894Z,45.20
2019-03-25T13:39:59.388Z,44.90
2019-03-25T13:41:04.106Z,44.70
2019-03-25T13:42:08.707Z,44.50
2019-03-25T13:43:13.346Z,44.30
2019-03-25T13:44:17.839Z,44.30
2019-03-25T13:45:22.387Z,42.90
2019-03-25T13:46:26.878Z,42.10
2019-03-25T13:47:31.342Z,41.30
2019-03-25T13:48:35.816Z,40.60
2019-03-25T13:49:40.341Z,40.10
2019-03-25T13:50:45.729Z,39.70
2019-03-25T13:51:50.415Z,39.50
2019-03-25T13:52:54.916Z,39.50
2019-03-25T13:53:59.407Z,39.60
2019-03-25T13:55:04.632Z,39.80
2019-03-25T13:56:09.105Z,40.20
2019-03-25T13:57:13.650Z,40.60
2019-03-25T13:58:18.119Z,40.80
2019-03-25T13:59:22.589Z,41.00
2019-03-25T14:00:37.674Z,41.00
2019-03-25T14:01:42.143Z,40.80
2019-03-25T14:02:46.633Z,40.70
2019-03-25T14:03:51.175Z,40.30
2019-03-25T14:04:55.662Z,40.20
2019-03-25T14:06:00.437Z,39.80
2019-03-25T14:07:05.363Z,38.80
2019-03-25T14:08:10.051Z,38.80
2019-03-25T14:09:14.727Z,38.50
2019-03-25T14:10:19.338Z,38.20
2019-03-25T14:11:23.890Z,38.20
2019-03-25T14:12:28.738Z,38.10
2019-03-25T14:13:33.376Z,38.10
2019-03-25T14:14:37.848Z,37.90
2019-03-25T14:15:42.327Z,37.90
2019-03-25T14:16:46.810Z,38.00
2019-03-25T14:17:51.333Z,38.00
2019-03-25T14:18:55.820Z,38.00
2019-03-25T14:20:00.394Z,38.00
2019-03-25T14:21:04.908Z,37.80